Time;durP1;ratioP1;P1;durP2;ratioP2;P2;SDS_P1;SDS_P2;PMS_P1;PMS_P2;Temp;Humidity;BMP_temperature;BMP_pressure;BME280_temperature;BME280_humidity;BME280_pressure;Samples;Min_cycle;Max_cycle;Signal;HPM_P1;HPM_P2
2021/08/17 00:02:13;;;;;;;42.97;20.02;;;;;;;20.43;65.09;99546.13;5133137;27;20075;-74
2021/08/17 00:04:38;;;;;;;41.53;20.02;;;;;;;20.44;64.95;99555.88;5133230;27;20050;-75
2021/08/17 00:07:04;;;;;;;35.15;19.10;;;;;;;20.46;64.75;99553.84;5133383;27;20113;-74
2021/08/17 00:09:30;;;;;;;39.58;19.58;;;;;;;20.45;65.18;99549.47;5132906;27;20071;-74
2021/08/17 00:11:56;;;;;;;35.05;19.73;;;;;;;20.44;64.95;99549.69;5133215;27;20129;-74
2021/08/17 00:14:22;;;;;;;37.47;19.58;;;;;;;20.43;65.89;99548.81;5114420;28;20536;-75
2021/08/17 00:16:48;;;;;;;39.70;18.90;;;;;;;20.45;65.47;99552.16;5133114;28;20066;-72
2021/08/17 00:19:14;;;;;;;38.85;19.38;;;;;;;20.48;64.93;99557.16;5133030;28;20089;-70
2021/08/17 00:21:40;;;;;;;34.80;18.42;;;;;;;20.54;64.33;99555.59;5132813;28;20134;-73
2021/08/17 00:24:05;;;;;;;36.03;18.17;;;;;;;20.58;64.18;99556.06;5133382;28;20506;-72
2021/08/17 00:26:31;;;;;;;36.50;18.42;;;;;;;20.59;64.40;99549.66;5133047;28;20035;-73
2021/08/17 00:28:57;;;;;;;43.40;21.55;;;;;;;20.55;64.97;99543.84;5133087;28;20415;-73
2021/08/17 00:31:22;;;;;;;47.08;21.92;;;;;;;20.48;65.45;99551.78;5132935;28;20082;-70
2021/08/17 00:33:48;;;;;;;41.47;19.50;;;;;;;20.38;65.66;99553.94;5132903;28;20039;-72
2021/08/17 00:36:14;;;;;;;42.20;20.13;;;;;;;20.34;65.46;99558.00;5132960;28;20571;-73
2021/08/17 00:38:40;;;;;;;41.63;19.50;;;;;;;20.31;65.48;99553.84;5151851;27;20074;-71
2021/08/17 00:41:08;;;;;;;30.27;17.02;;;;;;;20.32;65.01;99552.81;5153240;27;20035;-71
2021/08/17 00:43:34;;;;;;;42.42;20.02;;;;;;;20.33;65.39;99545.59;5153126;27;20121;-72
2021/08/17 00:46:00;;;;;;;47.03;22.85;;;;;;;20.32;65.67;99546.59;5153530;27;20070;-71
2021/08/17 00:48:26;;;;;;;39.13;18.48;;;;;;;20.30;65.51;99549.50;5135048;27;20122;-72
2021/08/17 00:50:52;;;;;;;42.97;20.15;;;;;;;20.19;66.58;99548.09;5153275;27;20479;-75
2021/08/17 00:53:18;;;;;;;41.65;21.05;;;;;;;20.09;67.04;99544.00;5153557;27;20038;-76
2021/08/17 00:55:43;;;;;;;40.55;20.08;;;;;;;19.95;67.37;99542.97;5153292;27;20039;-73
2021/08/17 00:58:09;;;;;;;40.63;20.25;;;;;;;19.83;68.01;99543.41;5134641;27;20034;-73
2021/08/17 01:00:35;;;;;;;46.30;20.85;;;;;;;19.75;68.44;99540.78;5153043;27;20480;-74
2021/08/17 01:03:01;;;;;;;45.70;20.95;;;;;;;19.70;68.82;99543.16;5157296;27;20484;-72
2021/08/17 01:05:28;;;;;;;43.47;20.02;;;;;;;19.64;69.30;99538.50;5156737;27;20049;-72
2021/08/17 01:07:55;;;;;;;41.47;20.58;;;;;;;19.59;69.46;99533.72;5156809;27;20507;-72
2021/08/17 01:10:21;;;;;;;40.47;19.65;;;;;;;19.54;69.54;99533.41;5156546;27;20043;-76
2021/08/17 01:12:47;;;;;;;49.00;21.08;;;;;;;19.45;69.90;99527.28;5156932;27;20038;-74
2021/08/17 01:15:14;;;;;;;38.83;19.73;;;;;;;19.39;70.25;99528.00;5138273;27;20059;-76
2021/08/17 01:17:42;;;;;;;41.33;20.30;;;;;;;19.39;70.42;99528.00;5156932;27;20057;-73
2021/08/17 01:20:14;;;;;;;43.33;20.30;;;;;;;19.38;70.44;99535.19;5156970;27;20126;-74
2021/08/17 01:22:41;;;;;;;38.88;18.98;;;;;;;19.34;70.68;99517.81;5156780;27;20046;-70
2021/08/17 01:25:08;;;;;;;40.47;19.35;;;;;;;19.33;70.86;99520.69;5156698;27;20400;-72
2021/08/17 01:27:34;;;;;;;39.55;18.33;;;;;;;19.32;70.96;99519.00;5156452;27;20043;-72
2021/08/17 01:30:00;;;;;;;35.30;18.95;;;;;;;19.34;71.20;99516.94;5156911;27;20042;-77
2021/08/17 01:32:25;;;;;;;40.88;20.15;;;;;;;19.36;71.02;99514.94;5156641;27;20187;-69
2021/08/17 01:34:51;;;;;;;32.80;17.75;;;;;;;19.37;70.77;99517.44;5156785;27;20118;-73
2021/08/17 01:37:17;;;;;;;32.03;18.50;;;;;;;19.39;70.91;99528.81;5157053;27;20042;-72
2021/08/17 01:39:42;;;;;;;38.88;18.70;;;;;;;19.42;70.70;99526.81;5156216;27;20034;-72
2021/08/17 01:42:08;;;;;;;34.40;17.88;;;;;;;19.42;70.99;99529.50;5156277;27;20121;-75
2021/08/17 01:44:34;;;;;;;39.92;18.17;;;;;;;19.44;70.94;99525.63;5156435;27;20038;-74
2021/08/17 01:47:00;;;;;;;32.28;17.73;;;;;;;19.44;70.98;99530.97;5156194;27;20085;-74
2021/08/17 01:49:26;;;;;;;37.08;19.25;;;;;;;19.34;70.96;99543.78;5156355;27;20049;-73
2021/08/17 01:51:52;;;;;;;36.17;19.45;;;;;;;19.19;71.05;99541.03;5156451;27;20031;-74
2021/08/17 01:54:18;;;;;;;35.50;19.52;;;;;;;19.20;71.24;99548.91;5137191;27;20094;-69
2021/08/17 01:56:45;;;;;;;30.58;16.45;;;;;;;19.37;69.35;99533.53;5156029;27;20039;-73
2021/08/17 01:59:13;;;;;;;25.45;15.75;;;;;;;19.61;68.25;99534.34;5155829;27;20049;-74
2021/08/17 02:01:41;;;;;;;37.35;20.10;;;;;;;19.71;69.07;99534.09;5126384;27;20046;-71
2021/08/17 02:04:06;;;;;;;;;;;;;;;19.64;68.99;99530.47;5135301;27;20498;-71
2021/08/17 02:06:32;;;;;;;33.28;16.88;;;;;;;19.67;68.32;99533.63;5134102;27;19987;-74
2021/08/17 02:08:58;;;;;;;33.83;17.25;;;;;;;19.73;67.93;99532.88;5135342;27;20038;-74
2021/08/17 02:11:24;;;;;;;39.67;19.67;;;;;;;19.79;68.49;99544.75;5134773;27;20137;-72
2021/08/17 02:13:50;;;;;;;32.50;18.73;;;;;;;19.68;68.86;99588.13;5135143;27;20111;-71
2021/08/17 02:16:16;;;;;;;45.30;23.23;;;;;;;19.46;70.27;99593.31;5136885;27;20045;-72
2021/08/17 02:18:41;;;;;;;47.00;23.23;;;;;;;19.31;71.11;99603.13;5134697;27;20042;-69
2021/08/17 02:21:07;;;;;;;41.63;22.77;;;;;;;19.26;71.16;99611.72;5134583;27;20051;-70
2021/08/17 02:23:33;;;;;;;48.67;23.00;;;;;;;19.28;71.22;99623.09;5134392;27;20047;-68
2021/08/17 02:25:59;;;;;;;44.72;22.05;;;;;;;19.30;71.14;99622.91;5134696;27;20672;-73
2021/08/17 02:28:25;;;;;;;47.30;22.67;;;;;;;19.37;70.99;99623.88;5134682;27;20046;-72
2021/08/17 02:30:52;;;;;;;39.08;21.25;;;;;;;19.40;71.02;99619.00;5134977;27;20400;-72
2021/08/17 02:33:18;;;;;;;42.00;21.92;;;;;;;19.38;70.69;99625.56;5134731;27;20130;-70
2021/08/17 02:35:44;;;;;;;44.05;23.45;;;;;;;19.37;70.84;99629.25;5134186;27;20086;-72
2021/08/17 02:38:10;;;;;;;34.35;21.45;;;;;;;19.44;70.45;99616.81;5134654;27;20334;-74
2021/08/17 02:40:37;;;;;;;42.72;23.35;;;;;;;19.52;70.05;99621.28;5134009;27;20043;-70
2021/08/17 02:43:04;;;;;;;38.53;23.05;;;;;;;19.58;69.78;99628.63;5134446;27;20047;-72
2021/08/17 02:45:30;;;;;;;36.25;21.45;;;;;;;19.61;69.78;99627.41;5134271;27;20055;-73
2021/08/17 02:48:00;;;;;;;39.42;21.40;;;;;;;19.66;69.46;99630.41;5134433;27;20042;-72
2021/08/17 02:50:27;;;;;;;37.85;20.88;;;;;;;19.70;69.32;99618.28;5134111;27;20046;-71
2021/08/17 02:52:53;;;;;;;41.83;21.30;;;;;;;19.74;69.22;99614.25;5134091;27;20043;-75
2021/08/17 02:55:19;;;;;;;34.22;20.48;;;;;;;19.80;68.89;99618.91;5133541;27;20039;-71
2021/08/17 02:57:54;;;;;;;47.95;21.52;;;;;;;19.91;68.38;99622.19;5133784;27;20039;-72
2021/08/17 03:00:20;;;;;;;39.25;20.05;;;;;;;19.94;67.98;99614.63;5134095;27;20483;-72
2021/08/17 03:02:46;;;;;;;36.30;20.00;;;;;;;20.00;67.92;99602.31;5134099;27;20043;-74
2021/08/17 03:05:12;;;;;;;38.65;19.45;;;;;;;20.09;67.57;99616.50;5133942;27;20047;-73
2021/08/17 03:07:50;;;;;;;33.03;19.75;;;;;;;20.25;66.66;99626.25;5133597;27;20043;-73
2021/08/17 03:10:16;;;;;;;35.92;19.90;;;;;;;20.40;66.19;99629.81;5133932;27;20130;-72
2021/08/17 03:12:42;;;;;;;37.55;19.45;;;;;;;20.54;65.61;99628.16;5133858;27;20118;-73
2021/08/17 03:15:08;;;;;;;36.03;20.30;;;;;;;20.68;65.07;99632.66;5133774;27;20086;-72
2021/08/17 03:17:37;;;;;;;38.78;20.25;;;;;;;20.73;65.20;99639.41;5133606;27;20138;-72
2021/08/17 03:20:08;;;;;;;38.38;20.85;;;;;;;20.71;65.53;99641.38;5133825;27;20043;-73
2021/08/17 03:22:34;;;;;;;43.45;20.85;;;;;;;20.69;65.72;99628.16;5115091;27;20035;-71
2021/08/17 03:25:00;;;;;;;38.40;21.50;;;;;;;20.72;65.70;99638.53;5133220;27;20133;-73
2021/08/17 03:27:26;;;;;;;36.45;20.75;;;;;;;20.73;65.81;99629.47;5115776;27;20045;-75
2021/08/17 03:29:52;;;;;;;41.00;22.17;;;;;;;20.80;65.37;99635.78;5115678;27;20113;-74
2021/08/17 03:32:17;;;;;;;37.80;20.08;;;;;;;20.87;65.33;99643.91;5115226;27;20495;-74
2021/08/17 03:34:43;;;;;;;34.63;19.17;;;;;;;20.97;64.84;99636.41;5114483;27;20134;-72
2021/08/17 03:37:09;;;;;;;31.67;18.38;;;;;;;21.17;63.67;99633.97;5133544;27;20046;-72
2021/08/17 03:39:35;;;;;;;31.08;17.60;;;;;;;21.32;62.87;99643.84;5132853;27;20058;-74
2021/08/17 03:42:00;;;;;;;33.53;16.63;;;;;;;21.45;62.34;99649.38;5133258;27;20039;-72
2021/08/17 03:44:26;;;;;;;29.10;15.45;;;;;;;21.58;61.52;99648.75;5114713;27;20043;-76
2021/08/17 03:46:52;;;;;;;25.92;14.73;;;;;;;21.72;60.58;99648.84;5133247;27;20043;-74
2021/08/17 03:49:17;;;;;;;21.88;12.05;;;;;;;21.85;59.43;99632.00;5133193;27;20096;-76
2021/08/17 03:51:43;;;;;;;21.35;12.20;;;;;;;22.00;58.86;99635.44;5132818;27;20071;-73
2021/08/17 03:54:09;;;;;;;21.38;11.50;;;;;;;22.17;58.09;99629.78;5132976;27;20508;-73
2021/08/17 03:56:35;;;;;;;21.75;11.25;;;;;;;22.30;57.56;99640.66;5151411;27;20046;-77
2021/08/17 03:59:00;;;;;;;20.85;14.77;;;;;;;22.45;56.77;99644.13;5153689;27;20057;-73
2021/08/17 04:01:26;;;;;;;18.23;11.45;;;;;;;22.71;56.12;99660.66;5153753;27;20126;-74
2021/08/17 04:03:52;;;;;;;21.92;11.20;;;;;;;22.90;55.88;99641.06;5153263;27;20046;-73
2021/08/17 04:06:21;;;;;;;22.50;10.85;;;;;;;23.14;55.11;99643.44;5153643;27;20091;-73
2021/08/17 04:08:48;;;;;;;25.02;12.98;;;;;;;23.45;54.79;99642.94;5133919;27;20137;-73
2021/08/17 04:11:14;;;;;;;17.02;11.15;;;;;;;23.57;53.87;99637.78;5153895;27;20491;-73
2021/08/17 04:13:40;;;;;;;16.30;10.38;;;;;;;23.82;54.09;99637.22;5153478;27;20114;-74
2021/08/17 04:16:07;;;;;;;20.90;11.85;;;;;;;23.97;53.40;99629.75;5135051;27;20086;-74
2021/08/17 04:18:33;;;;;;;17.50;9.53;;;;;;;24.51;51.73;99624.31;5153252;27;20095;-72
2021/08/17 04:20:59;;;;;;;19.85;9.38;;;;;;;25.24;49.63;99638.69;5153667;27;20043;-73
2021/08/17 04:23:24;;;;;;;19.13;9.07;;;;;;;25.73;48.29;99653.41;5153458;27;20039;-73
2021/08/17 04:25:50;;;;;;;24.02;9.77;;;;;;;25.79;47.95;99657.94;5153165;27;20137;-74
2021/08/17 04:28:16;;;;;;;45.22;14.52;;;;;;;25.83;48.04;99655.63;5153442;27;20038;-72
2021/08/17 04:30:42;;;;;;;14.90;9.52;;;;;;;25.62;48.13;99641.41;5153042;27;20043;-76
2021/08/17 04:33:08;;;;;;;17.58;9.80;;;;;;;25.24;48.84;99644.91;5153212;27;20043;-75
2021/08/17 04:35:33;;;;;;;17.48;9.85;;;;;;;24.53;50.34;99638.47;5153253;27;20038;-73
2021/08/17 04:37:59;;;;;;;18.58;9.63;;;;;;;24.25;51.13;99642.25;5157466;27;20039;-74
2021/08/17 04:40:25;;;;;;;18.08;10.50;;;;;;;24.00;52.06;99650.13;5157588;27;20054;-73
2021/08/17 04:42:51;;;;;;;18.00;10.65;;;;;;;23.86;52.43;99647.41;5157129;27;20042;-74
2021/08/17 04:45:17;;;;;;;23.90;10.63;;;;;;;23.70;53.05;99650.47;5157701;27;20439;-74
2021/08/17 04:47:47;;;;;;;15.30;9.50;;;;;;;23.55;53.31;99642.56;5157286;27;20130;-71
2021/08/17 04:50:13;;;;;;;18.63;10.27;;;;;;;23.42;53.87;99637.97;5157480;27;20074;-74
2021/08/17 04:52:40;;;;;;;15.75;9.93;;;;;;;23.30;54.32;99635.00;5156846;27;20074;-75
2021/08/17 04:55:06;;;;;;;17.45;10.43;;;;;;;23.28;54.21;99629.00;5156996;27;20133;-73
2021/08/17 04:57:32;;;;;;;18.33;10.55;;;;;;;23.18;54.75;99637.47;5156959;27;20061;-74
2021/08/17 04:59:58;;;;;;;16.27;10.10;;;;;;;23.16;55.02;99638.72;5156967;27;20487;-75
2021/08/17 05:02:23;;;;;;;18.25;9.95;;;;;;;23.14;54.89;99630.81;5155759;27;20043;-77
2021/08/17 05:04:49;;;;;;;21.08;10.02;;;;;;;23.08;54.96;99627.03;5138096;27;20047;-74
2021/08/17 05:07:15;;;;;;;17.52;10.13;;;;;;;23.10;54.88;99627.66;5146897;27;20117;-75
2021/08/17 05:09:41;;;;;;;15.73;10.10;;;;;;;23.13;54.83;99628.28;5135800;27;20461;-75
2021/08/17 05:12:06;;;;;;;21.60;10.70;;;;;;;23.22;54.61;99624.41;5152969;27;20035;-73
2021/08/17 05:14:32;;;;;;;25.58;14.40;;;;;;;23.37;55.00;99624.25;5152989;27;20046;-75
2021/08/17 05:16:58;;;;;;;23.25;12.15;;;;;;;23.51;54.67;99622.41;5135359;27;20112;-75
2021/08/17 05:19:23;;;;;;;16.73;11.00;;;;;;;23.59;54.36;99616.84;5138289;27;20049;-73
2021/08/17 05:21:49;;;;;;;20.58;10.23;;;;;;;23.56;53.79;99611.81;5139353;27;20126;-76
2021/08/17 05:24:15;;;;;;;17.85;9.98;;;;;;;23.90;53.05;99613.53;5136199;27;20078;-73
2021/08/17 05:26:41;;;;;;;18.85;9.63;;;;;;;23.99;52.61;99611.47;5147883;27;20039;-77
2021/08/17 05:29:06;;;;;;;16.08;10.05;;;;;;;24.29;52.52;99611.03;5154126;27;20043;-75
2021/08/17 05:31:32;;;;;;;25.42;12.73;;;;;;;24.77;50.95;99604.50;5144718;27;20042;-74
2021/08/17 05:33:58;;;;;;;27.75;14.07;;;;;;;25.42;49.89;99602.78;5136391;27;20459;-76
2021/08/17 05:36:23;;;;;;;28.00;13.23;;;;;;;27.09;45.97;99597.69;5136656;27;20384;-73
2021/08/17 05:38:49;;;;;;;22.10;13.23;;;;;;;28.30;42.52;99593.13;5135929;27;20437;-76
2021/08/17 05:41:15;;;;;;;23.15;11.80;;;;;;;28.67;41.37;99590.13;5135635;27;20138;-75
2021/08/17 05:43:41;;;;;;;25.02;11.05;;;;;;;29.84;39.92;99581.72;5141478;27;20039;-72
2021/08/17 05:46:06;;;;;;;28.83;14.02;;;;;;;30.91;37.53;99587.06;5154476;27;20711;-73
2021/08/17 05:48:32;;;;;;;32.28;16.13;;;;;;;30.29;37.85;99580.78;5155722;27;20491;-73
2021/08/17 05:50:58;;;;;;;29.70;14.35;;;;;;;29.58;39.30;99591.38;5151683;27;20120;-74
2021/08/17 05:53:24;;;;;;;26.65;12.60;;;;;;;29.32;39.48;99583.59;5145351;27;20476;-75
2021/08/17 05:55:50;;;;;;;27.83;11.53;;;;;;;29.14;39.26;99595.47;5147400;27;20076;-79
2021/08/17 05:58:16;;;;;;;25.48;11.40;;;;;;;30.08;37.88;99576.91;5155806;27;20291;-75
2021/08/17 06:00:41;;;;;;;21.00;10.90;;;;;;;30.60;36.56;99583.13;5129442;27;20043;-76
2021/08/17 06:03:07;;;;;;;23.00;10.90;;;;;;;30.13;37.22;99585.22;5139451;27;20119;-76
2021/08/17 06:05:33;;;;;;;42.97;13.75;;;;;;;30.05;36.94;99580.16;5154176;27;20045;-76
2021/08/17 06:07:59;;;;;;;27.98;11.98;;;;;;;29.98;37.23;99579.50;5152760;27;20376;-74
2021/08/17 06:10:24;;;;;;;29.30;12.02;;;;;;;29.94;37.52;99581.09;5150174;27;20091;-79
2021/08/17 06:12:50;;;;;;;23.85;11.73;;;;;;;30.89;36.29;99580.22;5142224;27;20038;-77
2021/08/17 06:15:16;;;;;;;29.50;12.93;;;;;;;32.19;34.48;99572.97;5139102;27;20055;-80
2021/08/17 06:17:42;;;;;;;25.70;11.90;;;;;;;32.71;33.25;99579.53;5148276;27;20035;-79
2021/08/17 06:20:09;;;;;;;56.63;16.30;;;;;;;33.96;31.25;99575.09;5136474;27;20107;-75
2021/08/17 06:22:35;;;;;;;29.05;12.40;;;;;;;34.30;30.38;99580.78;5137115;27;20035;-74
2021/08/17 06:25:02;;;;;;;25.13;11.13;;;;;;;34.62;29.64;99578.78;5117562;27;20096;-74
2021/08/17 06:27:27;;;;;;;;;;;;;;;34.74;29.04;99573.78;5118143;27;20043;-75
2021/08/17 06:29:53;;;;;;;35.77;12.00;;;;;;;35.18;28.50;99572.22;5146916;27;19937;-75
2021/08/17 06:32:19;;;;;;;29.10;12.10;;;;;;;35.46;27.88;99578.09;5134794;27;20506;-75
2021/08/17 06:34:45;;;;;;;31.88;12.35;;;;;;;35.67;27.53;99569.69;5139562;27;20046;-74
2021/08/17 06:37:11;;;;;;;44.17;13.02;;;;;;;36.27;26.97;99572.94;5141901;27;20041;-73
2021/08/17 06:39:37;;;;;;;31.27;12.40;;;;;;;36.75;26.60;99574.88;5155005;27;20138;-74
2021/08/17 06:42:21;;;;;;;18.13;11.18;;;;;;;37.54;25.80;99573.50;5148529;27;20332;-74
2021/08/17 06:44:48;;;;;;;21.90;10.65;;;;;;;37.42;25.41;99584.16;5154752;27;20376;-76
2021/08/17 06:47:14;;;;;;;24.37;10.27;;;;;;;37.24;25.17;99583.88;5148429;27;20046;-80
2021/08/17 06:49:40;;;;;;;17.55;10.88;;;;;;;37.21;25.90;99573.44;5145864;27;20595;-79
2021/08/17 06:52:06;;;;;;;17.80;10.40;;;;;;;37.16;25.44;99579.03;5140531;27;20050;-76
2021/08/17 06:54:31;;;;;;;19.38;10.77;;;;;;;37.36;25.74;99571.56;5140707;27;20336;-76
2021/08/17 06:56:57;;;;;;;19.17;10.93;;;;;;;37.15;25.28;99577.41;5134670;27;20054;-80
2021/08/17 06:59:23;;;;;;;18.77;11.10;;;;;;;37.29;25.43;99579.41;5116017;27;20289;-86
2021/08/17 07:01:49;;;;;;;20.55;12.25;;;;;;;36.88;25.81;99589.09;5103326;27;20043;-81
2021/08/17 07:04:15;;;;;;;23.90;11.52;;;;;;;36.80;25.61;99585.03;5155653;27;20034;-80
2021/08/17 07:06:40;;;;;;;23.87;12.60;;;;;;;37.21;25.68;99578.97;5143137;27;20126;-82
2021/08/17 07:09:06;;;;;;;20.83;12.10;;;;;;;37.29;25.25;99577.47;5140113;27;20323;-81
2021/08/17 07:11:32;;;;;;;23.65;13.27;;;;;;;37.18;25.28;99590.56;5139445;27;20184;-81
2021/08/17 07:13:58;;;;;;;28.83;12.43;;;;;;;36.77;25.74;99579.28;5095317;27;20051;-80
2021/08/17 07:16:24;;;;;;;25.92;13.77;;;;;;;36.81;25.33;99581.13;5150917;27;20054;-82
2021/08/17 07:18:51;;;;;;;22.58;13.52;;;;;;;37.70;25.41;99581.53;5098881;27;20051;-80
2021/08/17 07:21:16;;;;;;;25.83;13.00;;;;;;;38.18;24.36;99572.94;5134750;27;20039;-79
2021/08/17 07:23:42;;;;;;;24.13;14.13;;;;;;;38.53;24.52;99580.03;5110915;27;20042;-79
2021/08/17 07:26:17;;;;;;;25.17;13.35;;;;;;;38.61;24.21;99579.31;5147478;22;20051;31
2021/08/17 07:28:43;;;;;;;23.40;13.02;;;;;;;38.49;24.29;99583.41;5023108;28;20053;-80
2021/08/17 07:31:09;;;;;;;27.65;13.57;;;;;;;38.06;24.49;99580.06;5015011;28;20115;-76
2021/08/17 07:33:34;;;;;;;;;;;;;;;38.50;23.72;99581.47;5032719;28;20045;-72
2021/08/17 07:36:00;;;;;;;26.15;13.57;;;;;;;38.67;23.60;99575.28;5032272;28;20270;-75
2021/08/17 07:38:26;;;;;;;22.20;13.07;;;;;;;39.48;22.84;99573.75;5032646;28;20045;-78
2021/08/17 07:40:52;;;;;;;28.20;13.55;;;;;;;39.14;23.26;99580.66;5014830;28;20038;-78
2021/08/17 07:43:18;;;;;;;21.00;13.55;;;;;;;39.38;23.43;99563.78;5014275;28;20053;-82
2021/08/17 07:45:44;;;;;;;27.83;13.95;;;;;;;39.69;22.45;99573.28;4994992;28;20045;-79
2021/08/17 07:48:10;;;;;;;22.00;13.73;;;;;;;38.53;23.47;99585.56;5031658;28;20401;-76
2021/08/17 07:50:38;;;;;;;25.92;14.50;;;;;;;38.30;23.93;99582.69;5014318;28;20045;-73
2021/08/17 07:53:06;;;;;;;22.70;13.85;;;;;;;37.99;24.18;99572.22;5027686;28;20137;-75
2021/08/17 07:55:32;;;;;;;22.95;14.55;;;;;;;38.02;23.85;99590.91;5030884;28;20120;-75
2021/08/17 07:57:58;;;;;;;22.48;14.50;;;;;;;38.01;24.06;99587.34;5032051;28;20132;-74
2021/08/17 08:00:25;;;;;;;23.35;14.27;;;;;;;37.82;24.41;99584.66;5031836;28;20081;-74
2021/08/17 08:02:51;;;;;;;25.58;14.45;;;;;;;37.87;24.15;99580.97;4974407;28;20077;-74
2021/08/17 08:05:17;;;;;;;24.05;13.80;;;;;;;38.42;23.77;99584.94;4972912;28;20124;-74
2021/08/17 08:07:42;;;;;;;24.48;15.13;;;;;;;38.67;23.57;99586.34;5012192;28;20398;-75
2021/08/17 08:10:09;;;;;;;30.17;15.20;;;;;;;38.50;24.23;99582.28;5023402;28;20402;-75
2021/08/17 08:12:35;;;;;;;24.27;14.65;;;;;;;38.46;23.33;99586.78;5013325;28;20505;-77
2021/08/17 08:15:01;;;;;;;21.58;14.55;;;;;;;38.88;23.64;99580.41;5031023;28;20037;-75
2021/08/17 08:17:27;;;;;;;24.40;14.68;;;;;;;38.49;23.72;99580.63;5030932;28;20041;-75
2021/08/17 08:19:52;;;;;;;24.58;14.77;;;;;;;38.50;24.04;99579.50;5031714;28;20067;-78
2021/08/17 08:22:18;;;;;;;22.63;14.70;;;;;;;38.65;23.72;99578.38;5030555;28;20144;-75
2021/08/17 08:24:47;;;;;;;24.33;14.70;;;;;;;39.23;23.02;99578.81;5032147;28;20057;-78
2021/08/17 08:27:14;;;;;;;24.98;15.02;;;;;;;39.51;22.72;99569.56;5021937;28;20073;-77
2021/08/17 08:29:41;;;;;;;22.25;14.82;;;;;;;39.57;22.59;99580.19;5010873;28;20116;-77
2021/08/17 08:32:07;;;;;;;23.60;15.60;;;;;;;39.24;22.73;99572.13;5011041;28;20040;-76
2021/08/17 08:34:32;;;;;;;24.77;14.75;;;;;;;39.85;22.27;99573.72;5010819;28;20042;-75
2021/08/17 08:36:59;;;;;;;28.90;15.55;;;;;;;40.28;22.11;99575.91;5009438;28;20042;-77
2021/08/17 08:39:25;;;;;;;26.65;14.77;;;;;;;39.40;23.25;99569.00;5011269;28;20049;-76
2021/08/17 08:41:51;;;;;;;23.20;14.48;;;;;;;38.73;23.55;99573.25;5004653;28;20085;-79
2021/08/17 08:44:16;;;;;;;28.15;16.83;;;;;;;38.43;24.24;99572.75;4996694;28;20573;-79
2021/08/17 08:46:42;;;;;;;22.92;14.43;;;;;;;38.32;23.89;99574.91;5012062;28;20064;-80
2021/08/17 08:49:08;;;;;;;26.52;16.38;;;;;;;39.09;22.98;99567.75;4994039;28;20045;-75
2021/08/17 08:51:36;;;;;;;;;;;;;;;39.74;22.35;99557.38;5012779;28;20038;-79
2021/08/17 08:54:03;;;;;;;26.00;15.15;;;;;;;39.42;22.81;99567.56;5011326;28;20012;-81
2021/08/17 08:56:30;;;;;;;27.05;15.70;;;;;;;39.26;23.07;99569.06;4996489;28;20046;-79
2021/08/17 08:58:56;;;;;;;31.05;19.50;;;;;;;39.35;23.00;99569.94;4994860;28;20101;-81
2021/08/17 09:01:23;;;;;;;26.02;15.93;;;;;;;38.96;23.41;99576.91;4993690;28;20042;-82
2021/08/17 09:03:52;;;;;;;26.05;16.00;;;;;;;38.72;23.65;99582.66;4995687;28;20034;-84
2021/08/17 09:06:35;;;;;;;31.08;16.50;;;;;;;39.08;23.46;99581.91;4957928;28;20065;-85
2021/08/17 09:09:04;;;;;;;29.00;15.82;;;;;;;38.89;23.25;99576.53;4939253;28;20054;-78
2021/08/17 09:11:30;;;;;;;22.15;14.85;;;;;;;39.69;22.88;99571.31;4968930;28;20058;-73
2021/08/17 09:13:56;;;;;;;27.70;15.85;;;;;;;39.25;22.51;99568.22;4969938;28;20093;-76
2021/08/17 09:16:29;;;;;;;25.08;16.02;;;;;;;40.32;21.70;99560.25;4953030;28;20427;-75
2021/08/17 09:18:56;;;;;;;29.92;15.68;;;;;;;40.58;21.60;99570.63;4969734;28;20125;-76
2021/08/17 09:21:41;;;;;;;23.27;15.45;;;;;;;40.60;21.45;99565.56;4969809;28;20454;-73
2021/08/17 09:24:17;;;;;;;22.80;15.60;;;;;;;41.09;20.81;99565.50;4972949;28;20093;-76
2021/08/17 09:26:47;;;;;;;;;;;;;;;40.16;21.74;99556.28;4972975;28;20055;-76
2021/08/17 09:29:32;;;;;;;31.17;15.30;;;;;;;39.55;22.50;99553.97;4973074;28;19925;-76
2021/08/17 09:31:59;;;;;;;29.33;16.90;;;;;;;38.54;23.66;99560.38;4973010;28;20062;-77
2021/08/17 09:34:34;;;;;;;27.58;16.08;;;;;;;38.63;23.16;99541.09;4972919;28;20049;-75
2021/08/17 09:37:04;;;;;;;28.57;16.90;;;;;;;38.96;23.59;99549.25;4981017;28;20050;-74
2021/08/17 09:39:33;;;;;;;29.45;17.23;;;;;;;38.64;23.79;99537.22;4994850;28;20057;-76
2021/08/17 09:42:10;;;;;;;34.30;18.08;;;;;;;38.83;23.99;99550.91;4994789;28;20034;-73
2021/08/17 09:44:36;;;;;;;31.58;17.55;;;;;;;38.69;23.03;99548.16;4994643;28;20631;-76
2021/08/17 09:47:02;;;;;;;;;;;;;;;39.25;23.38;99537.00;4977752;28;20042;-76
2021/08/17 09:49:30;;;;;;;32.33;16.38;;;;;;;39.84;22.33;99533.28;4994849;28;19928;-80
2021/08/17 09:52:30;;;;;;;28.00;16.55;;;;;;;40.20;22.21;99540.66;4994665;28;20055;-73
2021/08/17 09:54:56;;;;;;;25.67;15.80;;;;;;;39.14;22.69;99545.53;4934109;29;20062;-73
2021/08/17 09:57:22;;;;;;;28.27;16.60;;;;;;;38.28;23.35;99557.28;4934071;29;20446;-75
2021/08/17 09:59:47;;;;;;;32.30;17.45;;;;;;;38.07;24.30;99541.09;4933845;29;20138;-75
2021/08/17 10:02:13;;;;;;;25.70;17.48;;;;;;;37.99;24.24;99533.53;4934294;29;20051;-74
2021/08/17 10:04:40;;;;;;;;;;;;;;;38.01;24.71;99534.03;4934206;29;20052;-75
2021/08/17 10:07:08;;;;;;;41.50;22.50;;;;;;;37.60;25.15;99537.53;4933830;29;20375;-76
2021/08/17 10:09:35;;;;;;;31.00;16.80;;;;;;;37.35;24.77;99525.78;4933594;29;20046;-75
2021/08/17 10:12:03;;;;;;;27.55;18.13;;;;;;;37.78;24.46;99525.59;4933752;29;20055;-76
2021/08/17 10:14:29;;;;;;;30.65;18.25;;;;;;;37.94;24.53;99517.06;4933737;29;20047;-74
2021/08/17 10:16:55;;;;;;;32.70;17.45;;;;;;;37.48;25.44;99524.22;4938108;29;20141;-75
2021/08/17 10:19:26;;;;;;;31.38;17.38;;;;;;;36.51;26.69;99518.97;4952277;29;20109;-77
2021/08/17 10:21:55;;;;;;;34.53;18.67;;;;;;;36.48;26.55;99508.56;4951607;29;20082;-74
2021/08/17 10:24:34;;;;;;;28.63;17.05;;;;;;;36.32;26.87;99510.66;4952734;29;20055;-76
2021/08/17 10:27:23;;;;;;;32.70;16.75;;;;;;;36.35;27.41;99505.38;4952285;29;20471;-78
2021/08/17 10:30:11;;;;;;;31.05;17.15;;;;;;;36.61;25.67;99487.72;4965972;28;20050;-73
2021/08/17 10:32:43;;;;;;;23.85;16.38;;;;;;;37.19;25.44;99494.88;5013086;28;20096;-76
2021/08/17 10:35:47;;;;;;;29.52;19.70;;;;;;;37.46;24.22;99494.16;5013464;28;20088;-77
2021/08/17 10:38:13;;;;;;;30.45;17.25;;;;;;;37.15;24.98;99496.56;5000668;28;20149;-77
2021/08/17 10:40:51;;;;;;;26.03;15.43;;;;;;;36.68;25.58;99499.19;5011807;28;20125;-75
2021/08/17 10:43:21;;;;;;;34.53;18.38;;;;;;;36.59;25.19;99494.34;5012987;28;20045;-79
2021/08/17 10:46:01;;;;;;;23.13;15.50;;;;;;;36.68;25.79;99485.41;5012969;28;20053;-79
2021/08/17 10:48:51;;;;;;;27.77;16.00;;;;;;;36.74;25.67;99495.25;5013157;28;20041;-75
2021/08/17 10:51:20;;;;;;;27.17;16.88;;;;;;;36.44;26.22;99480.78;5013039;28;20050;-78
2021/08/17 10:54:14;;;;;;;28.98;17.00;;;;;;;35.72;27.96;99484.31;5012627;28;20042;-77
2021/08/17 10:56:40;;;;;;;24.30;14.20;;;;;;;35.18;26.08;99486.97;5012640;28;20509;-73
2021/08/17 10:59:06;;;;;;;26.63;13.80;;;;;;;35.03;26.04;99482.41;5012967;28;20046;-75
2021/08/17 11:01:35;;;;;;;26.80;13.80;;;;;;;34.49;27.35;99489.56;5012816;28;20056;-74
2021/08/17 11:04:06;;;;;;;25.77;14.63;;;;;;;34.35;27.56;99478.38;5012892;28;20042;-76
2021/08/17 11:06:45;;;;;;;30.05;15.27;;;;;;;34.34;28.12;99474.84;5012858;28;20046;-75
2021/08/17 11:09:31;;;;;;;30.10;16.38;;;;;;;34.43;28.27;99485.22;5012845;28;20049;-74
2021/08/17 11:12:03;;;;;;;23.83;15.30;;;;;;;34.28;29.01;99484.16;4995341;28;20508;-74
2021/08/17 11:14:30;;;;;;;25.25;16.15;;;;;;;33.85;29.13;99491.97;5012109;28;20064;-77
2021/08/17 11:17:03;;;;;;;29.00;15.50;;;;;;;33.53;29.93;99488.41;5012520;28;20048;-75
2021/08/17 11:19:31;;;;;;;29.50;15.63;;;;;;;33.86;29.09;99482.66;5012732;28;20050;-73
2021/08/17 11:22:01;;;;;;;28.98;14.88;;;;;;;34.11;28.70;99478.16;5012590;28;20038;-76